sensor_id;sensor_type;location;lat;lon;timestamp;pressure;altitude;pressure_sealevel;temperature;humidity
36234;BME280;43467;50.890;5.982;2023-01-28T00:01:14;101342.69;;;6.36;65.46
36234;BME280;43467;50.890;5.982;2023-01-28T00:03:40;101342.66;;;6.40;65.21
36234;BME280;43467;50.890;5.982;2023-01-28T00:06:12;101343.59;;;6.35;64.98
36234;BME280;43467;50.890;5.982;2023-01-28T00:08:38;101338.38;;;6.30;65.07
36234;BME280;43467;50.890;5.982;2023-01-28T00:11:05;101352.38;;;6.34;65.13
36234;BME280;43467;50.890;5.982;2023-01-28T00:13:32;101347.91;;;6.40;65.24
36234;BME280;43467;50.890;5.982;2023-01-28T00:15:59;101334.81;;;6.37;65.10
36234;BME280;43467;50.890;5.982;2023-01-28T00:18:26;101344.41;;;6.40;65.24
36234;BME280;43467;50.890;5.982;2023-01-28T00:23:25;101336.41;;;6.49;65.00
36234;BME280;43467;50.890;5.982;2023-01-28T00:25:52;101332.06;;;6.48;64.98
36234;BME280;43467;50.890;5.982;2023-01-28T00:28:18;101337.22;;;6.56;65.04
36234;BME280;43467;50.890;5.982;2023-01-28T00:30:44;101330.22;;;6.56;64.89
36234;BME280;43467;50.890;5.982;2023-01-28T00:33:09;101334.56;;;6.60;64.87
36234;BME280;43467;50.890;5.982;2023-01-28T00:35:34;101331.84;;;6.66;64.88
36234;BME280;43467;50.890;5.982;2023-01-28T00:38:00;101327.44;;;6.65;64.60
36234;BME280;43467;50.890;5.982;2023-01-28T00:40:28;101319.59;;;6.64;64.70
36234;BME280;43467;50.890;5.982;2023-01-28T00:43:00;101326.56;;;6.65;64.73
36234;BME280;43467;50.890;5.982;2023-01-28T00:45:25;101324.91;;;6.58;64.66
36234;BME280;43467;50.890;5.982;2023-01-28T00:47:51;101318.78;;;6.57;64.74
36234;BME280;43467;50.890;5.982;2023-01-28T00:50:16;101327.63;;;6.51;65.02
36234;BME280;43467;50.890;5.982;2023-01-28T00:52:42;101298.84;;;6.39;64.78
36234;BME280;43467;50.890;5.982;2023-01-28T00:55:07;101326.66;;;6.57;65.12
36234;BME280;43467;50.890;5.982;2023-01-28T00:57:33;101324.06;;;6.56;64.98
36234;BME280;43467;50.890;5.982;2023-01-28T00:59:59;101320.53;;;6.57;64.98
36234;BME280;43467;50.890;5.982;2023-01-28T01:02:25;101312.72;;;6.50;65.32
36234;BME280;43467;50.890;5.982;2023-01-28T01:04:51;101324.03;;;6.60;65.11
36234;BME280;43467;50.890;5.982;2023-01-28T01:07:23;101314.44;;;6.56;65.11
36234;BME280;43467;50.890;5.982;2023-01-28T01:10:15;101316.19;;;6.52;64.92
36234;BME280;43467;50.890;5.982;2023-01-28T01:12:41;101322.38;;;6.48;65.22
36234;BME280;43467;50.890;5.982;2023-01-28T01:18:38;101329.41;;;6.49;65.34
36234;BME280;43467;50.890;5.982;2023-01-28T01:21:08;101330.28;;;6.50;65.26
36234;BME280;43467;50.890;5.982;2023-01-28T01:23:34;101338.16;;;6.50;64.94
36234;BME280;43467;50.890;5.982;2023-01-28T01:26:00;101331.25;;;6.40;65.13
36234;BME280;43467;50.890;5.982;2023-01-28T01:28:25;101339.22;;;6.34;65.36
36234;BME280;43467;50.890;5.982;2023-01-28T01:31:01;101340.06;;;6.37;65.70
36234;BME280;43467;50.890;5.982;2023-01-28T01:33:28;101335.56;;;6.47;65.46
36234;BME280;43467;50.890;5.982;2023-01-28T01:35:54;101338.22;;;6.45;65.54
36234;BME280;43467;50.890;5.982;2023-01-28T01:38:19;101346.97;;;6.47;65.69
36234;BME280;43467;50.890;5.982;2023-01-28T01:40:45;101339.09;;;6.44;65.48
36234;BME280;43467;50.890;5.982;2023-01-28T01:46:26;101340.81;;;6.48;65.53
36234;BME280;43467;50.890;5.982;2023-01-28T01:48:56;101341.75;;;6.43;65.15
36234;BME280;43467;50.890;5.982;2023-01-28T01:51:28;101345.28;;;6.42;65.58
36234;BME280;43467;50.890;5.982;2023-01-28T01:53:56;101341.72;;;6.46;65.43
36234;BME280;43467;50.890;5.982;2023-01-28T01:56:28;101341.69;;;6.49;65.72
36234;BME280;43467;50.890;5.982;2023-01-28T01:58:54;101345.13;;;6.54;65.70
36234;BME280;43467;50.890;5.982;2023-01-28T02:01:22;101343.31;;;6.59;65.56
36234;BME280;43467;50.890;5.982;2023-01-28T02:06:22;101338.16;;;6.51;65.51
36234;BME280;43467;50.890;5.982;2023-01-28T02:08:48;101341.69;;;6.49;65.32
36234;BME280;43467;50.890;5.982;2023-01-28T02:11:16;101341.66;;;6.50;65.67
36234;BME280;43467;50.890;5.982;2023-01-28T02:13:46;101339.88;;;6.52;65.07
36234;BME280;43467;50.890;5.982;2023-01-28T02:16:12;101344.28;;;6.52;64.91
36234;BME280;43467;50.890;5.982;2023-01-28T02:18:38;101349.66;;;6.43;65.25
36234;BME280;43467;50.890;5.982;2023-01-28T02:24:22;101348.72;;;6.45;65.22
36234;BME280;43467;50.890;5.982;2023-01-28T02:35:13;101344.50;;;6.32;65.35
36234;BME280;43467;50.890;5.982;2023-01-28T02:37:46;101347.06;;;6.37;65.40
36234;BME280;43467;50.890;5.982;2023-01-28T02:40:20;101347.94;;;6.37;65.38
36234;BME280;43467;50.890;5.982;2023-01-28T02:42:47;101360.22;;;6.38;64.99
36234;BME280;43467;50.890;5.982;2023-01-28T02:47:45;101345.31;;;6.39;65.26
36234;BME280;43467;50.890;5.982;2023-01-28T02:50:26;101347.91;;;6.42;65.21
36234;BME280;43467;50.890;5.982;2023-01-28T02:53:26;101349.66;;;6.41;64.91
36234;BME280;43467;50.890;5.982;2023-01-28T02:56:23;101356.72;;;6.39;64.97
36234;BME280;43467;50.890;5.982;2023-01-28T02:59:12;101355.78;;;6.43;64.72
36234;BME280;43467;50.890;5.982;2023-01-28T03:05:18;101359.47;;;6.26;64.76
36234;BME280;43467;50.890;5.982;2023-01-28T03:07:46;101364.66;;;6.32;64.93
36234;BME280;43467;50.890;5.982;2023-01-28T03:10:16;101369.03;;;6.34;64.97
36234;BME280;43467;50.890;5.982;2023-01-28T03:12:43;101370.78;;;6.35;64.77
36234;BME280;43467;50.890;5.982;2023-01-28T03:15:42;101369.78;;;6.44;64.63
36234;BME280;43467;50.890;5.982;2023-01-28T03:18:48;101370.78;;;6.35;64.28
36234;BME280;43467;50.890;5.982;2023-01-28T03:21:41;101372.63;;;6.26;64.64
36234;BME280;43467;50.890;5.982;2023-01-28T03:24:31;101380.47;;;6.30;64.79
36234;BME280;43467;50.890;5.982;2023-01-28T03:30:08;101376.16;;;6.20;64.64
36234;BME280;43467;50.890;5.982;2023-01-28T03:32:54;101364.94;;;6.04;64.74
36234;BME280;43467;50.890;5.982;2023-01-28T03:35:40;101364.09;;;6.02;64.92
36234;BME280;43467;50.890;5.982;2023-01-28T03:38:24;101374.59;;;6.02;64.80
36234;BME280;43467;50.890;5.982;2023-01-28T03:41:07;101373.78;;;5.99;64.46
36234;BME280;43467;50.890;5.982;2023-01-28T03:43:34;101377.34;;;5.89;64.66
36234;BME280;43467;50.890;5.982;2023-01-28T03:45:59;101381.66;;;5.97;64.63
36234;BME280;43467;50.890;5.982;2023-01-28T03:48:26;101380.78;;;5.95;64.76
36234;BME280;43467;50.890;5.982;2023-01-28T03:50:54;101383.50;;;5.86;63.98
36234;BME280;43467;50.890;5.982;2023-01-28T03:53:19;101374.72;;;5.84;64.23
36234;BME280;43467;50.890;5.982;2023-01-28T03:55:47;101386.09;;;5.85;64.23
36234;BME280;43467;50.890;5.982;2023-01-28T03:58:13;101383.53;;;5.77;64.13
36234;BME280;43467;50.890;5.982;2023-01-28T04:00:38;101387.00;;;5.79;63.96
36234;BME280;43467;50.890;5.982;2023-01-28T04:03:12;101390.47;;;5.84;63.71
36234;BME280;43467;50.890;5.982;2023-01-28T04:05:58;101389.59;;;5.85;63.48
36234;BME280;43467;50.890;5.982;2023-01-28T04:08:23;101397.50;;;5.84;63.75
36234;BME280;43467;50.890;5.982;2023-01-28T04:10:49;101408.03;;;5.82;63.46
36234;BME280;43467;50.890;5.982;2023-01-28T04:13:15;101389.66;;;5.75;63.35
36234;BME280;43467;50.890;5.982;2023-01-28T04:15:41;101405.44;;;5.76;63.78
36234;BME280;43467;50.890;5.982;2023-01-28T04:18:08;101398.47;;;5.72;63.17
36234;BME280;43467;50.890;5.982;2023-01-28T04:20:33;101402.81;;;5.76;63.34
36234;BME280;43467;50.890;5.982;2023-01-28T04:22:59;101395.81;;;5.78;63.27
36234;BME280;43467;50.890;5.982;2023-01-28T04:25:24;101402.88;;;5.67;63.64
36234;BME280;43467;50.890;5.982;2023-01-28T04:27:50;101402.88;;;5.70;63.22
36234;BME280;43467;50.890;5.982;2023-01-28T04:30:15;101404.59;;;5.74;63.09
36234;BME280;43467;50.890;5.982;2023-01-28T04:32:41;101405.50;;;5.70;63.60
36234;BME280;43467;50.890;5.982;2023-01-28T04:35:06;101407.22;;;5.71;63.25
36234;BME280;43467;50.890;5.982;2023-01-28T04:37:32;101415.97;;;5.72;62.67
36234;BME280;43467;50.890;5.982;2023-01-28T04:39:57;101413.38;;;5.69;63.12
36234;BME280;43467;50.890;5.982;2023-01-28T04:42:22;101416.81;;;5.77;62.61
36234;BME280;43467;50.890;5.982;2023-01-28T04:44:48;101421.25;;;5.67;62.95
36234;BME280;43467;50.890;5.982;2023-01-28T04:47:13;101431.72;;;5.76;62.83
36234;BME280;43467;50.890;5.982;2023-01-28T04:49:39;101422.94;;;5.79;62.62
36234;BME280;43467;50.890;5.982;2023-01-28T04:52:04;101415.13;;;5.68;62.62
36234;BME280;43467;50.890;5.982;2023-01-28T04:54:30;101422.97;;;5.77;62.73
36234;BME280;43467;50.890;5.982;2023-01-28T04:56:55;101423.84;;;5.75;62.97
36234;BME280;43467;50.890;5.982;2023-01-28T04:59:20;101415.09;;;5.74;62.46
36234;BME280;43467;50.890;5.982;2023-01-28T05:01:48;101419.41;;;5.84;62.28
36234;BME280;43467;50.890;5.982;2023-01-28T05:04:13;101417.69;;;5.86;62.31
36234;BME280;43467;50.890;5.982;2023-01-28T05:06:39;101421.19;;;5.81;61.77
36234;BME280;43467;50.890;5.982;2023-01-28T05:09:05;101415.09;;;5.73;61.56
36234;BME280;43467;50.890;5.982;2023-01-28T05:11:30;101422.94;;;5.79;61.74
36234;BME280;43467;50.890;5.982;2023-01-28T05:13:55;101429.97;;;5.75;61.69
36234;BME280;43467;50.890;5.982;2023-01-28T05:16:21;101420.34;;;5.73;61.39
36234;BME280;43467;50.890;5.982;2023-01-28T05:18:46;101422.16;;;5.66;61.57
36234;BME280;43467;50.890;5.982;2023-01-28T05:21:12;101424.81;;;5.61;61.01
36234;BME280;43467;50.890;5.982;2023-01-28T05:23:38;101415.19;;;5.60;61.28
36234;BME280;43467;50.890;5.982;2023-01-28T05:26:04;101420.34;;;5.73;61.46
36234;BME280;43467;50.890;5.982;2023-01-28T05:28:29;101420.38;;;5.74;60.88
36234;BME280;43467;50.890;5.982;2023-01-28T05:30:54;101423.88;;;5.73;61.37
36234;BME280;43467;50.890;5.982;2023-01-28T05:33:20;101427.34;;;5.75;61.26
36234;BME280;43467;50.890;5.982;2023-01-28T05:35:45;101422.16;;;5.63;60.80
36234;BME280;43467;50.890;5.982;2023-01-28T05:38:10;101422.09;;;5.72;61.57
36234;BME280;43467;50.890;5.982;2023-01-28T05:40:36;101424.75;;;5.71;61.37
36234;BME280;43467;50.890;5.982;2023-01-28T05:43:01;101432.66;;;5.69;61.68
36234;BME280;43467;50.890;5.982;2023-01-28T05:45:26;101432.69;;;5.60;60.62
36234;BME280;43467;50.890;5.982;2023-01-28T05:47:52;101439.72;;;5.59;61.02
36234;BME280;43467;50.890;5.982;2023-01-28T05:50:17;101425.66;;;5.63;61.44
36234;BME280;43467;50.890;5.982;2023-01-28T05:52:43;101435.34;;;5.61;61.12
36234;BME280;43467;50.890;5.982;2023-01-28T05:55:09;101441.44;;;5.65;61.15
36234;BME280;43467;50.890;5.982;2023-01-28T05:57:35;101446.75;;;5.51;61.23
36234;BME280;43467;50.890;5.982;2023-01-28T06:00:00;101452.91;;;5.49;61.39
36234;BME280;43467;50.890;5.982;2023-01-28T06:02:25;101438.94;;;5.41;61.23
36234;BME280;43467;50.890;5.982;2023-01-28T06:04:51;101443.38;;;5.33;61.21
36234;BME280;43467;50.890;5.982;2023-01-28T06:07:16;101462.53;;;5.48;61.08
36234;BME280;43467;50.890;5.982;2023-01-28T06:09:45;101459.06;;;5.45;60.81
36234;BME280;43467;50.890;5.982;2023-01-28T06:12:10;101459.91;;;5.47;61.15
36234;BME280;43467;50.890;5.982;2023-01-28T06:14:36;101469.53;;;5.46;60.53
36234;BME280;43467;50.890;5.982;2023-01-28T06:17:01;101458.19;;;5.43;60.85
36234;BME280;43467;50.890;5.982;2023-01-28T06:19:26;101454.66;;;5.47;60.64
36234;BME280;43467;50.890;5.982;2023-01-28T06:21:52;101463.44;;;5.49;60.56
36234;BME280;43467;50.890;5.982;2023-01-28T06:24:17;101456.41;;;5.49;60.46
36234;BME280;43467;50.890;5.982;2023-01-28T06:26:43;101462.50;;;5.56;60.17
36234;BME280;43467;50.890;5.982;2023-01-28T06:29:08;101457.25;;;5.56;60.17
36234;BME280;43467;50.890;5.982;2023-01-28T06:31:34;101454.72;;;5.39;60.04
36234;BME280;43467;50.890;5.982;2023-01-28T06:33:59;101459.91;;;5.47;59.64
36234;BME280;43467;50.890;5.982;2023-01-28T06:36:25;101462.53;;;5.47;59.71
36234;BME280;43467;50.890;5.982;2023-01-28T06:38:51;101463.44;;;5.49;59.87
36234;BME280;43467;50.890;5.982;2023-01-28T06:41:16;101466.94;;;5.45;59.43
36234;BME280;43467;50.890;5.982;2023-01-28T06:43:42;101460.00;;;5.33;59.28
36234;BME280;43467;50.890;5.982;2023-01-28T06:46:07;101467.00;;;5.33;59.20
36234;BME280;43467;50.890;5.982;2023-01-28T06:48:32;101463.50;;;5.26;59.75
36234;BME280;43467;50.890;5.982;2023-01-28T06:50:58;101470.56;;;5.26;58.72
36234;BME280;43467;50.890;5.982;2023-01-28T06:53:23;101467.06;;;5.25;58.42
36234;BME280;43467;50.890;5.982;2023-01-28T06:55:49;101473.16;;;5.24;57.78
36234;BME280;43467;50.890;5.982;2023-01-28T06:58:14;101481.94;;;5.15;57.51
36234;BME280;43467;50.890;5.982;2023-01-28T07:00:40;101474.94;;;5.14;57.67
36234;BME280;43467;50.890;5.982;2023-01-28T07:03:05;101474.94;;;5.14;58.16
36234;BME280;43467;50.890;5.982;2023-01-28T07:05:30;101476.72;;;5.17;57.64
36234;BME280;43467;50.890;5.982;2023-01-28T07:07:56;101474.06;;;5.14;57.34
36234;BME280;43467;50.890;5.982;2023-01-28T07:10:21;101474.97;;;5.18;57.41
36234;BME280;43467;50.890;5.982;2023-01-28T07:12:47;101471.41;;;5.25;58.01
36234;BME280;43467;50.890;5.982;2023-01-28T07:15:12;101473.22;;;5.12;58.02
36234;BME280;43467;50.890;5.982;2023-01-28T07:17:42;101474.09;;;5.06;57.18
36234;BME280;43467;50.890;5.982;2023-01-28T07:20:10;101477.59;;;5.10;56.68
36234;BME280;43467;50.890;5.982;2023-01-28T07:22:36;101485.47;;;5.18;56.73
36234;BME280;43467;50.890;5.982;2023-01-28T07:25:05;101479.34;;;5.12;56.54
36234;BME280;43467;50.890;5.982;2023-01-28T07:27:30;101486.34;;;5.07;56.00
36234;BME280;43467;50.890;5.982;2023-01-28T07:29:56;101478.50;;;4.98;56.24
36234;BME280;43467;50.890;5.982;2023-01-28T07:32:21;101480.28;;;4.92;56.56
36234;BME280;43467;50.890;5.982;2023-01-28T07:34:47;101491.59;;;5.01;56.21
36234;BME280;43467;50.890;5.982;2023-01-28T07:37:13;101487.28;;;4.96;56.43
36234;BME280;43467;50.890;5.982;2023-01-28T07:39:39;101489.88;;;4.94;56.21
36234;BME280;43467;50.890;5.982;2023-01-28T07:42:04;101488.13;;;4.95;56.79
36234;BME280;43467;50.890;5.982;2023-01-28T07:44:30;101472.41;;;4.92;56.52
36234;BME280;43467;50.890;5.982;2023-01-28T07:46:56;101469.81;;;4.83;56.30
36234;BME280;43467;50.890;5.982;2023-01-28T07:49:21;101483.75;;;4.98;56.30
36234;BME280;43467;50.890;5.982;2023-01-28T07:51:46;101475.88;;;5.01;56.80
36234;BME280;43467;50.890;5.982;2023-01-28T07:54:14;101481.97;;;5.09;56.57
36234;BME280;43467;50.890;5.982;2023-01-28T07:56:40;101457.50;;;5.01;56.42
36234;BME280;43467;50.890;5.982;2023-01-28T07:59:05;101478.44;;;5.15;56.46
36234;BME280;43467;50.890;5.982;2023-01-28T08:01:31;101481.97;;;5.08;56.16
36234;BME280;43467;50.890;5.982;2023-01-28T08:03:56;101489.00;;;5.09;56.02
36234;BME280;43467;50.890;5.982;2023-01-28T08:06:21;101496.00;;;5.08;56.12
36234;BME280;43467;50.890;5.982;2023-01-28T08:08:47;101502.13;;;5.03;55.55
36234;BME280;43467;50.890;5.982;2023-01-28T08:11:13;101507.38;;;4.98;55.49
36234;BME280;43467;50.890;5.982;2023-01-28T08:13:38;101503.88;;;5.02;54.70
36234;BME280;43467;50.890;5.982;2023-01-28T08:16:04;101509.16;;;4.90;54.70
36234;BME280;43467;50.890;5.982;2023-01-28T08:18:30;101518.75;;;4.97;54.91
36234;BME280;43467;50.890;5.982;2023-01-28T08:20:57;101526.63;;;5.03;55.44
36234;BME280;43467;50.890;5.982;2023-01-28T08:23:23;101531.00;;;5.03;55.44
36234;BME280;43467;50.890;5.982;2023-01-28T08:25:51;101526.63;;;4.99;55.03
36234;BME280;43467;50.890;5.982;2023-01-28T08:28:18;101531.88;;;4.96;54.94
36234;BME280;43467;50.890;5.982;2023-01-28T08:30:44;101531.88;;;5.00;55.11
36234;BME280;43467;50.890;5.982;2023-01-28T08:33:11;101536.25;;;4.98;55.01
36234;BME280;43467;50.890;5.982;2023-01-28T08:35:37;101534.47;;;5.02;54.91
36234;BME280;43467;50.890;5.982;2023-01-28T08:38:04;101529.25;;;5.05;54.73
36234;BME280;43467;50.890;5.982;2023-01-28T08:40:30;101532.72;;;5.10;54.70
36234;BME280;43467;50.890;5.982;2023-01-28T08:42:56;101528.31;;;5.13;55.15
36234;BME280;43467;50.890;5.982;2023-01-28T08:45:24;101539.72;;;5.09;54.64
36234;BME280;43467;50.890;5.982;2023-01-28T08:48:00;101543.22;;;5.13;54.47
36234;BME280;43467;50.890;5.982;2023-01-28T08:50:29;101542.34;;;5.09;54.55
36234;BME280;43467;50.890;5.982;2023-01-28T08:53:02;101549.34;;;5.01;53.90
36234;BME280;43467;50.890;5.982;2023-01-28T08:55:28;101544.09;;;5.06;54.58
36234;BME280;43467;50.890;5.982;2023-01-28T08:57:53;101551.09;;;5.02;54.51
36234;BME280;43467;50.890;5.982;2023-01-28T09:00:20;101549.34;;;5.07;54.51
36234;BME280;43467;50.890;5.982;2023-01-28T09:02:46;101560.69;;;5.14;54.74
36234;BME280;43467;50.890;5.982;2023-01-28T09:05:12;101560.72;;;5.17;54.53
36234;BME280;43467;50.890;5.982;2023-01-28T09:07:39;101574.72;;;5.13;54.62
36234;BME280;43467;50.890;5.982;2023-01-28T09:10:05;101568.59;;;5.09;54.40
36234;BME280;43467;50.890;5.982;2023-01-28T09:12:31;101580.84;;;5.17;53.98
36234;BME280;43467;50.890;5.982;2023-01-28T09:14:56;101579.09;;;5.15;53.68
36234;BME280;43467;50.890;5.982;2023-01-28T09:17:22;101574.72;;;5.14;53.82
36234;BME280;43467;50.890;5.982;2023-01-28T09:19:48;101587.81;;;5.19;53.55
36234;BME280;43467;50.890;5.982;2023-01-28T09:22:14;101589.56;;;5.25;54.05
36234;BME280;43467;50.890;5.982;2023-01-28T09:24:39;101578.22;;;5.10;53.26
36234;BME280;43467;50.890;5.982;2023-01-28T09:27:05;101593.94;;;5.23;52.88
36234;BME280;43467;50.890;5.982;2023-01-28T09:29:32;101593.09;;;5.16;52.84
36234;BME280;43467;50.890;5.982;2023-01-28T09:31:58;101606.19;;;5.19;52.98
36234;BME280;43467;50.890;5.982;2023-01-28T09:34:23;101602.69;;;5.19;52.67
36234;BME280;43467;50.890;5.982;2023-01-28T09:36:49;101599.22;;;5.17;52.56
36234;BME280;43467;50.890;5.982;2023-01-28T09:39:14;101601.88;;;5.09;52.58
36234;BME280;43467;50.890;5.982;2023-01-28T09:45:02;101611.47;;;5.02;52.76
36234;BME280;43467;50.890;5.982;2023-01-28T09:47:38;101603.59;;;5.02;53.11
36234;BME280;43467;50.890;5.982;2023-01-28T09:50:07;101605.38;;;5.00;52.60
36234;BME280;43467;50.890;5.982;2023-01-28T09:52:35;101603.59;;;5.02;52.48
36234;BME280;43467;50.890;5.982;2023-01-28T09:55:09;101614.13;;;5.01;52.59
36234;BME280;43467;50.890;5.982;2023-01-28T09:57:41;101622.84;;;5.07;52.81
36234;BME280;43467;50.890;5.982;2023-01-28T10:00:15;101614.13;;;4.95;52.43
36234;BME280;43467;50.890;5.982;2023-01-28T10:05:19;101623.72;;;5.06;52.10
36234;BME280;43467;50.890;5.982;2023-01-28T10:07:58;101629.88;;;5.01;52.21
36234;BME280;43467;50.890;5.982;2023-01-28T10:10:29;101618.50;;;4.88;52.71
36234;BME280;43467;50.890;5.982;2023-01-28T10:13:00;101616.75;;;4.95;53.21
36234;BME280;43467;50.890;5.982;2023-01-28T10:18:10;101616.72;;;5.11;52.50
36234;BME280;43467;50.890;5.982;2023-01-28T10:20:51;101611.47;;;5.11;52.35
36234;BME280;43467;50.890;5.982;2023-01-28T10:23:22;101623.72;;;5.19;52.46
36234;BME280;43467;50.890;5.982;2023-01-28T10:25:49;101614.09;;;5.14;52.33
36234;BME280;43467;50.890;5.982;2023-01-28T10:28:20;101622.81;;;5.18;52.18
36234;BME280;43467;50.890;5.982;2023-01-28T10:30:48;101605.34;;;5.17;52.30
36234;BME280;43467;50.890;5.982;2023-01-28T10:33:21;101607.09;;;5.20;52.27
36234;BME280;43467;50.890;5.982;2023-01-28T10:35:49;101604.44;;;5.18;51.65
36234;BME280;43467;50.890;5.982;2023-01-28T10:38:20;101601.81;;;5.23;51.47
36234;BME280;43467;50.890;5.982;2023-01-28T10:40:46;101604.41;;;5.30;51.67
36234;BME280;43467;50.890;5.982;2023-01-28T10:43:25;101605.31;;;5.28;51.54
36234;BME280;43467;50.890;5.982;2023-01-28T10:45:58;101603.59;;;5.18;51.38
36234;BME280;43467;50.890;5.982;2023-01-28T10:48:29;101602.66;;;5.31;51.40
36234;BME280;43467;50.890;5.982;2023-01-28T10:50:58;101603.53;;;5.39;51.51
36234;BME280;43467;50.890;5.982;2023-01-28T10:53:43;101606.16;;;5.45;50.71
36234;BME280;43467;50.890;5.982;2023-01-28T10:56:09;101607.00;;;5.56;51.49
36234;BME280;43467;50.890;5.982;2023-01-28T10:58:56;101598.28;;;5.42;51.25
36234;BME280;43467;50.890;5.982;2023-01-28T11:01:23;101604.38;;;5.51;51.16
36234;BME280;43467;50.890;5.982;2023-01-28T11:03:54;101613.97;;;5.58;50.98
36234;BME280;43467;50.890;5.982;2023-01-28T11:06:27;101608.81;;;5.37;50.75
36234;BME280;43467;50.890;5.982;2023-01-28T11:08:52;101613.19;;;5.37;50.98
36234;BME280;43467;50.890;5.982;2023-01-28T11:11:24;101610.53;;;5.44;51.17
36234;BME280;43467;50.890;5.982;2023-01-28T11:13:51;101614.03;;;5.49;51.38
36234;BME280;43467;50.890;5.982;2023-01-28T11:16:19;101616.63;;;5.57;50.82
36234;BME280;43467;50.890;5.982;2023-01-28T11:18:52;101615.78;;;5.46;50.74
36234;BME280;43467;50.890;5.982;2023-01-28T11:21:25;101616.63;;;5.61;51.24
36234;BME280;43467;50.890;5.982;2023-01-28T11:23:59;101606.97;;;5.62;51.11
36234;BME280;43467;50.890;5.982;2023-01-28T11:26:28;101619.22;;;5.65;51.51
36234;BME280;43467;50.890;5.982;2023-01-28T11:28:56;101614.88;;;5.53;51.10
36234;BME280;43467;50.890;5.982;2023-01-28T11:31:22;101621.88;;;5.55;51.13
36234;BME280;43467;50.890;5.982;2023-01-28T11:33:57;101607.91;;;5.40;51.50
36234;BME280;43467;50.890;5.982;2023-01-28T11:36:28;101616.66;;;5.43;51.08
36234;BME280;43467;50.890;5.982;2023-01-28T11:38:56;101613.16;;;5.43;51.66
36234;BME280;43467;50.890;5.982;2023-01-28T11:41:30;101617.50;;;5.53;51.31
36234;BME280;43467;50.890;5.982;2023-01-28T11:44:23;101610.50;;;5.58;51.34
36234;BME280;43467;50.890;5.982;2023-01-28T12:03:34;101585.91;;;5.71;51.51
36234;BME280;43467;50.890;5.982;2023-01-28T12:11:44;101587.69;;;5.66;52.29
36234;BME280;43467;50.890;5.982;2023-01-28T12:20:30;101585.97;;;5.56;51.96
36234;BME280;43467;50.890;5.982;2023-01-28T12:28:56;101593.84;;;5.62;52.72
36234;BME280;43467;50.890;5.982;2023-01-28T12:31:40;101583.44;;;5.33;52.89
36234;BME280;43467;50.890;5.982;2023-01-28T12:42:12;101569.31;;;5.60;51.46
36234;BME280;43467;50.890;5.982;2023-01-28T12:44:46;101567.56;;;5.59;52.29
36234;BME280;43467;50.890;5.982;2023-01-28T12:47:20;101555.31;;;5.55;52.52
36234;BME280;43467;50.890;5.982;2023-01-28T12:49:50;101555.28;;;5.66;52.61
36234;BME280;43467;50.890;5.982;2023-01-28T12:52:21;101545.66;;;5.65;52.89
36234;BME280;43467;50.890;5.982;2023-01-28T12:55:03;101536.03;;;5.59;52.58
36234;BME280;43467;50.890;5.982;2023-01-28T12:57:31;101529.88;;;5.65;52.60
36234;BME280;43467;50.890;5.982;2023-01-28T13:05:48;101534.22;;;5.78;52.70
36234;BME280;43467;50.890;5.982;2023-01-28T13:08:27;101537.72;;;5.74;52.53
36234;BME280;43467;50.890;5.982;2023-01-28T13:10:56;101514.97;;;5.74;52.21
36234;BME280;43467;50.890;5.982;2023-01-28T13:13:34;101511.38;;;5.87;52.38
36234;BME280;43467;50.890;5.982;2023-01-28T13:16:02;101506.13;;;5.89;51.73
36234;BME280;43467;50.890;5.982;2023-01-28T13:18:32;101505.28;;;5.82;51.64
36234;BME280;43467;50.890;5.982;2023-01-28T13:20:59;101488.63;;;5.91;51.55
36234;BME280;43467;50.890;5.982;2023-01-28T13:23:41;101480.69;;;5.92;50.81
36234;BME280;43467;50.890;5.982;2023-01-28T13:26:41;101476.19;;;6.10;50.69
36234;BME280;43467;50.890;5.982;2023-01-28T13:29:27;101489.34;;;6.11;50.29
36234;BME280;43467;50.890;5.982;2023-01-28T13:31:56;101487.69;;;5.96;50.84
36234;BME280;43467;50.890;5.982;2023-01-28T13:36:55;101503.41;;;6.05;51.01
36234;BME280;43467;50.890;5.982;2023-01-28T13:39:23;101498.06;;;6.12;50.21
36234;BME280;43467;50.890;5.982;2023-01-28T13:41:52;101510.25;;;6.25;49.81
36234;BME280;43467;50.890;5.982;2023-01-28T13:44:28;101517.16;;;6.38;49.38
36234;BME280;43467;50.890;5.982;2023-01-28T13:47:10;101524.19;;;6.39;49.25
36234;BME280;43467;50.890;5.982;2023-01-28T13:49:39;101517.19;;;6.32;49.59
36234;BME280;43467;50.890;5.982;2023-01-28T13:52:25;101534.72;;;6.39;49.42
36234;BME280;43467;50.890;5.982;2023-01-28T13:55:37;101535.59;;;6.39;49.03
36234;BME280;43467;50.890;5.982;2023-01-28T14:06:28;101554.16;;;6.14;49.60
36234;BME280;43467;50.890;5.982;2023-01-28T14:19:59;101551.66;;;5.92;49.62
36234;BME280;43467;50.890;5.982;2023-01-28T14:22:25;101552.56;;;5.94;49.34
36234;BME280;43467;50.890;5.982;2023-01-28T14:24:50;101554.28;;;5.94;49.12
36234;BME280;43467;50.890;5.982;2023-01-28T14:27:36;101554.28;;;5.95;49.31
36234;BME280;43467;50.890;5.982;2023-01-28T14:30:21;101563.09;;;5.90;49.41
36234;BME280;43467;50.890;5.982;2023-01-28T14:32:50;101554.28;;;5.94;50.11
36234;BME280;43467;50.890;5.982;2023-01-28T14:35:31;101543.72;;;6.01;49.66
36234;BME280;43467;50.890;5.982;2023-01-28T14:37:58;101538.41;;;6.14;50.21
36234;BME280;43467;50.890;5.982;2023-01-28T14:40:27;101533.09;;;6.17;49.82
36234;BME280;43467;50.890;5.982;2023-01-28T14:42:54;101533.16;;;6.09;49.57
36234;BME280;43467;50.890;5.982;2023-01-28T14:45:47;101520.88;;;6.13;48.44
36234;BME280;43467;50.890;5.982;2023-01-28T14:48:24;101533.16;;;6.11;49.30
36234;BME280;43467;50.890;5.982;2023-01-28T14:51:12;101529.63;;;6.15;48.85
36234;BME280;43467;50.890;5.982;2023-01-28T14:54:45;101520.00;;;6.15;49.42
36234;BME280;43467;50.890;5.982;2023-01-28T14:57:04;101517.34;;;6.14;48.67
36234;BME280;43467;50.890;5.982;2023-01-28T15:02:23;101527.13;;;5.92;49.07
36234;BME280;43467;50.890;5.982;2023-01-28T15:04:49;101538.56;;;5.91;49.30
36234;BME280;43467;50.890;5.982;2023-01-28T15:09:40;101521.94;;;5.78;49.55